Phillipsport, New York
Current Conditions -  °F | °C
As of 2:54 PM on Thursday 29 Jan 2015 (Local Time) from KMGJ Reporting Station
Broken Clouds Broken Clouds  
Wind Chill: 28°   Ceiling: 11000
Heat Index: 28°   Visibility: 10mi
Dew Point:   Wind: 0mph
Humidity: 34%   Direction: NA
Pressure: 30.13"   Gusts: NA
Location:  41.65°N, 74.44°W
Report Text: KMGJ 291954Z AUTO 00000KT 10SM BKN110 M02/M16 A3013 RMK AO2 SLP209 T10221161 TSNO
Loading
Personal Weather Stations






























Interactive Weather Map New forecast layout! Learn more

10-Day Weather Forecast

Advertisements
Track Severe Weather on mobile